createdAt,value
2023-02-17T00:00:32.804Z,50.88
2023-02-17T00:05:29.888Z,51.53
2023-02-17T00:07:59.705Z,51.78
2023-02-17T00:10:26.443Z,52.00
2023-02-17T00:12:59.468Z,48.97
2023-02-17T00:15:29.064Z,54.00
2023-02-17T00:17:58.142Z,45.45
2023-02-17T00:20:32.355Z,49.88
2023-02-17T00:23:04.749Z,53.78
2023-02-17T00:25:49.255Z,53.83
2023-02-17T00:28:46.431Z,53.03
2023-02-17T00:31:27.174Z,52.42
2023-02-17T00:34:05.346Z,46.95
2023-02-17T00:36:32.424Z,54.00
2023-02-17T00:39:08.951Z,53.53
2023-02-17T00:41:35.653Z,52.30
2023-02-17T00:44:15.082Z,54.05
2023-02-17T00:46:54.650Z,53.05
2023-02-17T00:49:35.736Z,54.67
2023-02-17T00:52:08.640Z,52.72
2023-02-17T00:54:35.428Z,51.10
2023-02-17T00:57:10.178Z,55.53
2023-02-17T00:59:36.937Z,55.55
2023-02-17T01:02:03.922Z,54.70
2023-02-17T01:04:30.671Z,53.97
2023-02-17T01:07:07.477Z,53.22
2023-02-17T01:09:34.200Z,54.92
2023-02-17T01:12:04.085Z,54.42
2023-02-17T01:14:34.033Z,53.88
2023-02-17T01:17:00.672Z,53.05
2023-02-17T01:19:33.062Z,56.08
2023-02-17T01:22:10.318Z,56.30
2023-02-17T01:24:38.244Z,54.20
2023-02-17T01:27:10.933Z,53.92
2023-02-17T01:29:37.602Z,53.35
2023-02-17T01:32:05.909Z,52.80
2023-02-17T01:34:35.072Z,52.15
2023-02-17T01:37:11.022Z,55.65
2023-02-17T01:39:37.841Z,50.92
2023-02-17T01:42:04.590Z,52.85
2023-02-17T01:44:34.350Z,53.50
2023-02-17T01:47:04.329Z,52.70
2023-02-17T01:49:51.984Z,49.92
2023-02-17T01:52:30.992Z,53.65
2023-02-17T01:55:13.888Z,50.13
2023-02-17T01:57:55.409Z,49.72
2023-02-17T02:00:29.455Z,53.22
2023-02-17T02:02:58.172Z,49.85
2023-02-17T02:05:25.213Z,52.97
2023-02-17T02:07:54.519Z,52.35
2023-02-17T02:10:24.400Z,50.67
2023-02-17T02:12:53.844Z,51.70
2023-02-17T02:15:59.237Z,50.25
2023-02-17T02:19:34.968Z,48.78
2023-02-17T02:22:52.363Z,37.20
2023-02-17T02:26:35.281Z,45.75
2023-02-17T02:29:54.970Z,48.30
2023-02-17T02:32:51.532Z,46.92
2023-02-17T02:36:28.421Z,46.80
2023-02-17T02:39:34.051Z,42.53
2023-02-17T02:42:59.817Z,44.58
2023-02-17T02:45:33.350Z,44.70
2023-02-17T02:48:00.737Z,42.72
2023-02-17T02:51:13.279Z,44.40
2023-02-17T02:54:28.687Z,34.90
2023-02-17T02:57:16.184Z,42.47
2023-02-17T03:00:39.017Z,39.45
2023-02-17T03:04:01.134Z,35.95
2023-02-17T03:10:04.218Z,31.00
2023-02-17T03:12:31.807Z,37.08
2023-02-17T03:15:38.205Z,35.33
2023-02-17T03:18:16.567Z,33.33
2023-02-17T03:20:56.305Z,29.70
2023-02-17T03:23:32.276Z,35.97
2023-02-17T03:26:17.135Z,38.05
2023-02-17T03:28:49.886Z,34.78
2023-02-17T03:31:29.047Z,35.15
2023-02-17T03:33:58.207Z,32.58
2023-02-17T03:36:31.266Z,32.33
2023-02-17T03:38:59.030Z,29.45
2023-02-17T03:41:28.897Z,32.47
2023-02-17T03:43:55.692Z,24.40
2023-02-17T03:46:31.673Z,29.45
2023-02-17T03:49:09.417Z,31.33
2023-02-17T03:51:36.238Z,26.73
2023-02-17T03:54:03.064Z,28.85
2023-02-17T03:56:30.478Z,28.20
2023-02-17T03:58:57.278Z,29.55
2023-02-17T04:01:27.193Z,31.38
2023-02-17T04:03:57.205Z,29.08
2023-02-17T04:06:29.000Z,30.35
2023-02-17T04:08:55.854Z,30.95
2023-02-17T04:11:28.714Z,31.25
2023-02-17T04:13:55.362Z,30.15
2023-02-17T04:16:25.276Z,30.98
2023-02-17T04:18:51.953Z,33.55
2023-02-17T04:21:18.672Z,32.45
2023-02-17T04:23:45.738Z,31.23
2023-02-17T04:26:12.598Z,29.70
2023-02-17T04:28:44.139Z,28.33
2023-02-17T04:31:13.751Z,29.70
2023-02-17T04:33:48.776Z,29.65
2023-02-17T04:36:17.974Z,29.58
2023-02-17T04:38:51.429Z,30.95
2023-02-17T04:41:28.769Z,29.73
2023-02-17T04:43:55.517Z,27.38
2023-02-17T04:46:30.417Z,22.85
2023-02-17T04:48:57.220Z,29.50
2023-02-17T04:51:31.048Z,29.25
2023-02-17T04:53:58.029Z,25.73
2023-02-17T04:56:24.942Z,26.60
2023-02-17T04:58:51.707Z,31.50
2023-02-17T05:01:18.388Z,28.65
2023-02-17T05:03:45.539Z,29.63
2023-02-17T05:06:12.342Z,25.33
2023-02-17T05:08:46.962Z,26.02
2023-02-17T05:11:14.860Z,28.23
2023-02-17T05:13:44.785Z,26.83
2023-02-17T05:16:11.728Z,29.00
2023-02-17T05:18:38.607Z,24.42
2023-02-17T05:21:05.885Z,21.58
2023-02-17T05:23:44.147Z,25.42
2023-02-17T05:26:11.253Z,19.63
2023-02-17T05:28:37.973Z,23.52
2023-02-17T05:31:05.456Z,21.58
2023-02-17T05:33:33.447Z,22.10
2023-02-17T05:36:10.815Z,22.00
2023-02-17T05:38:47.893Z,18.92
2023-02-17T05:41:17.686Z,21.83
2023-02-17T05:43:44.926Z,23.08
2023-02-17T05:46:11.717Z,22.15
2023-02-17T05:48:38.966Z,19.70
2023-02-17T05:51:08.815Z,20.20
2023-02-17T05:53:42.398Z,19.08
2023-02-17T05:56:12.094Z,18.67
2023-02-17T05:58:38.866Z,18.02
2023-02-17T06:01:12.654Z,17.60
2023-02-17T06:03:49.599Z,22.10
2023-02-17T06:06:16.561Z,16.42
2023-02-17T06:08:48.710Z,17.30
2023-02-17T06:11:15.579Z,19.40
2023-02-17T06:13:48.388Z,17.92
2023-02-17T06:16:15.117Z,17.50
2023-02-17T06:18:44.915Z,19.90
2023-02-17T06:21:20.171Z,17.52
2023-02-17T06:23:47.568Z,19.42
2023-02-17T06:26:27.729Z,18.33
2023-02-17T07:26:16.581Z,19.83
2023-02-17T07:28:50.787Z,18.67
2023-02-17T07:31:18.537Z,19.27
2023-02-17T07:33:53.003Z,19.17
2023-02-17T07:36:19.931Z,19.00
2023-02-17T07:38:47.287Z,14.45
2023-02-17T07:41:28.729Z,18.45
2023-02-17T07:43:58.007Z,18.42
2023-02-17T07:46:30.316Z,18.63
2023-02-17T07:48:58.546Z,18.08
2023-02-17T07:51:25.747Z,15.18
2023-02-17T07:53:53.535Z,17.83
2023-02-17T07:56:24.578Z,17.63
2023-02-17T07:58:51.482Z,17.20
2023-02-17T08:01:24.049Z,17.30
2023-02-17T08:03:54.461Z,16.48
2023-02-17T08:06:27.915Z,18.33
2023-02-17T08:09:16.955Z,14.97
2023-02-17T08:12:04.932Z,18.10
2023-02-17T08:14:38.659Z,14.68
2023-02-17T08:17:09.434Z,16.40
2023-02-17T08:19:49.737Z,16.45
2023-02-17T08:22:18.177Z,16.80
2023-02-17T08:24:47.481Z,17.73
2023-02-17T08:27:16.632Z,16.38
2023-02-17T08:29:49.509Z,15.20
2023-02-17T08:32:22.558Z,16.50
2023-02-17T08:34:52.378Z,14.45
2023-02-17T08:37:22.356Z,18.55
2023-02-17T08:39:49.408Z,15.48
2023-02-17T08:42:19.775Z,14.57
2023-02-17T08:45:25.637Z,12.60
2023-02-17T08:47:52.435Z,13.35
2023-02-17T08:50:20.351Z,12.65
2023-02-17T08:52:47.524Z,16.63
2023-02-17T08:55:19.115Z,15.90
2023-02-17T08:57:48.694Z,15.73
2023-02-17T09:00:18.904Z,14.75
2023-02-17T09:02:46.343Z,12.57
2023-02-17T09:05:17.068Z,13.50
2023-02-17T09:07:44.220Z,14.57
2023-02-17T09:10:16.632Z,13.48
2023-02-17T11:54:26.197Z,8.63
2023-02-17T11:58:10.875Z,7.82
2023-02-17T12:02:12.744Z,9.10
2023-02-17T12:05:20.148Z,9.32
2023-02-17T12:08:27.353Z,7.82
2023-02-17T12:11:37.027Z,8.65
2023-02-17T12:14:44.752Z,6.57
2023-02-17T12:17:54.376Z,18.70
2023-02-17T12:20:58.517Z,7.93
2023-02-17T12:23:48.110Z,7.95
2023-02-17T12:26:46.269Z,8.43
2023-02-17T12:30:10.531Z,7.90
2023-02-17T12:33:20.533Z,9.68
2023-02-17T12:36:00.845Z,8.88
2023-02-17T12:38:37.168Z,10.38
2023-02-17T12:41:28.484Z,11.50
2023-02-17T12:44:27.377Z,10.48
2023-02-17T12:47:02.744Z,10.65
2023-02-17T12:50:03.052Z,10.30
2023-02-17T12:52:59.328Z,10.65
2023-02-17T12:55:50.983Z,11.60
2023-02-17T12:58:31.102Z,11.43
2023-02-17T13:01:22.146Z,13.05
2023-02-17T13:03:49.064Z,11.18
2023-02-17T13:06:46.016Z,11.23
2023-02-17T13:09:41.456Z,9.48
2023-02-17T13:12:33.254Z,17.88
2023-02-17T13:15:29.766Z,14.95
2023-02-17T13:18:03.520Z,10.27
2023-02-17T13:21:23.230Z,11.48
2023-02-17T13:24:30.770Z,13.02
2023-02-17T13:27:12.241Z,11.80
2023-02-17T13:29:45.075Z,10.90
2023-02-17T13:32:14.550Z,8.57
2023-02-17T13:34:46.435Z,11.75
2023-02-17T13:37:33.589Z,13.02
2023-02-17T13:40:24.136Z,9.15
2023-02-17T13:42:57.624Z,8.05
2023-02-17T13:45:52.757Z,7.78
2023-02-17T13:48:36.244Z,11.52
2023-02-17T13:51:11.306Z,7.20
2023-02-17T13:53:53.152Z,6.85
2023-02-17T13:56:30.498Z,7.10
2023-02-17T13:59:32.849Z,7.93
2023-02-17T14:02:00.040Z,17.95
2023-02-17T14:04:55.117Z,8.75
2023-02-17T14:07:22.391Z,7.78
2023-02-17T14:09:55.151Z,9.18
2023-02-17T14:12:24.921Z,10.40
2023-02-17T14:14:54.971Z,6.50
2023-02-17T14:17:33.257Z,5.90
2023-02-17T14:20:36.291Z,7.47
2023-02-17T14:23:15.891Z,7.20
2023-02-17T14:25:52.797Z,11.05
2023-02-17T14:28:27.080Z,7.15
2023-02-17T14:33:47.331Z,14.88
2023-02-17T14:36:14.642Z,10.77
2023-02-17T14:39:05.306Z,20.95
2023-02-17T14:41:35.286Z,5.95
2023-02-17T14:44:06.105Z,6.45
2023-02-17T14:46:45.134Z,7.07
2023-02-17T14:49:14.476Z,6.95
2023-02-17T14:51:50.520Z,7.13
2023-02-17T14:54:19.281Z,9.35
2023-02-17T14:57:18.388Z,8.18
2023-02-17T14:59:59.305Z,7.63
2023-02-17T15:05:22.706Z,7.32
2023-02-17T15:07:52.193Z,5.30
2023-02-17T15:10:34.774Z,4.75
2023-02-17T15:13:01.882Z,29.35
2023-02-17T15:15:28.582Z,6.47
2023-02-17T15:17:55.281Z,6.32
2023-02-17T15:20:24.442Z,7.15
2023-02-17T15:23:05.019Z,8.80
2023-02-17T15:25:35.573Z,8.35
2023-02-17T15:28:05.038Z,5.53
2023-02-17T15:30:33.282Z,7.70
2023-02-17T15:33:02.625Z,6.88
2023-02-17T15:35:31.558Z,8.48
2023-02-17T15:37:58.297Z,6.47
2023-02-17T15:40:28.246Z,5.90
2023-02-17T15:43:16.706Z,8.40
2023-02-17T15:45:48.721Z,8.93
2023-02-17T15:48:24.942Z,5.47
2023-02-17T15:50:56.555Z,7.18
2023-02-17T15:53:25.441Z,7.75
2023-02-17T15:55:55.686Z,7.10
2023-02-17T15:58:26.008Z,7.63
2023-02-17T16:01:19.229Z,5.63
2023-02-17T16:03:57.445Z,6.75
2023-02-17T16:06:29.127Z,7.63
2023-02-17T16:09:07.676Z,6.38
2023-02-17T16:11:53.615Z,28.80
2023-02-17T16:14:36.151Z,6.53
2023-02-17T16:17:13.966Z,6.88
2023-02-17T16:19:49.807Z,6.05
2023-02-17T16:22:46.514Z,8.48
2023-02-17T16:25:28.242Z,10.15
2023-02-17T16:27:56.954Z,7.55
2023-02-17T16:30:46.702Z,8.38
2023-02-17T16:34:01.884Z,8.15
2023-02-17T16:36:38.840Z,7.95
2023-02-17T16:39:23.728Z,11.15
2023-02-17T16:41:56.139Z,16.10
2023-02-17T16:44:33.776Z,9.07
2023-02-17T16:47:23.311Z,9.63
2023-02-17T16:49:57.532Z,7.90
2023-02-17T16:52:30.866Z,10.23
2023-02-17T16:55:03.243Z,7.37
2023-02-17T16:57:36.963Z,8.70
2023-02-17T17:00:19.857Z,10.15
2023-02-17T17:02:50.523Z,12.95
2023-02-17T17:05:29.824Z,17.45
2023-02-17T17:08:03.128Z,7.78
2023-02-17T17:13:31.005Z,13.48
2023-02-17T17:16:33.941Z,9.27
2023-02-17T17:19:05.751Z,5.43
2023-02-17T17:21:32.998Z,7.53
2023-02-17T17:24:00.164Z,8.38
2023-02-17T17:26:51.266Z,6.70
2023-02-17T17:29:24.810Z,7.55
2023-02-17T18:54:17.451Z,6.55
2023-02-17T19:49:36.081Z,6.22
2023-02-17T21:06:33.340Z,7.63
2023-02-17T21:09:18.315Z,5.38
2023-02-17T21:11:46.538Z,6.05
2023-02-17T21:14:15.322Z,6.65
2023-02-17T21:16:44.022Z,5.93
2023-02-17T21:19:10.761Z,11.25
2023-02-17T21:21:37.683Z,7.50
2023-02-17T21:24:07.659Z,5.85
2023-02-17T21:26:34.512Z,5.70
2023-02-17T21:29:01.438Z,6.25
2023-02-17T21:31:31.513Z,6.75
2023-02-17T21:34:05.385Z,5.57
2023-02-17T21:36:32.277Z,5.40
2023-02-17T21:39:00.974Z,8.05
2023-02-17T21:41:30.248Z,6.65
2023-02-17T21:44:15.950Z,5.68
2023-02-17T21:46:56.076Z,5.05
2023-02-17T21:49:23.479Z,6.25
2023-02-17T21:51:53.230Z,6.65
2023-02-17T21:54:20.328Z,4.18
2023-02-17T21:56:47.177Z,5.03
2023-02-17T21:59:14.161Z,6.03
2023-02-17T22:01:53.096Z,6.18
2023-02-17T22:04:25.633Z,6.38
2023-02-17T22:06:58.021Z,5.30
2023-02-17T22:09:24.817Z,5.68
2023-02-17T22:11:58.593Z,6.22
2023-02-17T22:14:25.660Z,6.68
2023-02-17T22:16:54.602Z,7.97
2023-02-17T22:19:30.382Z,5.60
2023-02-17T22:22:01.084Z,6.68
2023-02-17T22:24:30.973Z,6.07
2023-02-17T22:27:10.293Z,5.85
2023-02-17T22:29:37.045Z,5.93
2023-02-17T22:32:06.835Z,7.97
2023-02-17T22:34:33.650Z,5.53
2023-02-17T22:37:00.355Z,6.55
2023-02-17T22:39:27.057Z,6.55
2023-02-17T22:42:07.199Z,6.32
2023-02-17T22:44:33.961Z,5.20
2023-02-17T22:47:00.778Z,7.15
2023-02-17T22:49:28.000Z,4.90
2023-02-17T22:51:55.057Z,9.18
2023-02-17T22:54:21.780Z,4.95
2023-02-17T22:56:53.258Z,7.00
2023-02-17T22:59:20.023Z,6.53
2023-02-17T23:01:53.942Z,5.68
2023-02-17T23:04:25.787Z,6.22
2023-02-17T23:07:10.845Z,6.05
2023-02-17T23:09:37.715Z,6.30
2023-02-17T23:12:11.470Z,5.35
2023-02-17T23:14:43.801Z,7.07
2023-02-17T23:17:16.372Z,5.18
2023-02-17T23:19:54.998Z,4.72
2023-02-17T23:22:22.817Z,5.57
2023-02-17T23:24:49.435Z,5.32
2023-02-17T23:27:16.485Z,6.22
2023-02-17T23:29:57.751Z,6.57
2023-02-17T23:32:24.487Z,6.07
2023-02-17T23:34:53.448Z,6.85
2023-02-17T23:37:22.507Z,6.65
2023-02-17T23:39:49.290Z,5.93
2023-02-17T23:42:16.039Z,6.00
2023-02-17T23:44:45.753Z,5.10
2023-02-17T23:47:12.443Z,6.35
2023-02-17T23:49:41.109Z,8.02
2023-02-17T23:52:07.771Z,5.72
2023-02-17T23:54:34.382Z,4.68
2023-02-17T23:57:07.135Z,6.53
2023-02-17T23:59:34.030Z,10.02
